Time;durP1;ratioP1;P1;durP2;ratioP2;P2;SDS_P1;SDS_P2;PMS_P1;PMS_P2;Temp;Humidity;BMP_temperature;BMP_pressure;BME280_temperature;BME280_humidity;BME280_pressure;Samples;Min_cycle;Max_cycle;Signal;HPM_P1;HPM_P2
2021/12/06 00:00:48;;;;;;;34.05;19.90;;;10.10;61.00;;;;;;4965169;23;20106;-87
2021/12/06 00:06:33;;;;;;;35.05;19.55;;;9.90;61.70;;;;;;4975808;23;20050;-87
2021/12/06 00:09:35;;;;;;;33.15;19.67;;;9.80;61.80;;;;;;4950683;29;20023;-87
2021/12/06 00:12:02;;;;;;;41.38;22.10;;;9.60;62.40;;;;;;4938416;29;20027;-87
2021/12/06 00:21:04;;;;;;;58.25;26.40;;;10.20;61.10;;;;;;5587609;23;20045;-87
2021/12/06 00:27:33;;;;;;;43.90;23.70;;;10.50;60.40;;;;;;4993960;28;20037;-87
2021/12/06 00:30:10;;;;;;;36.30;20.48;;;10.70;60.20;;;;;;4972014;28;20047;-86
2021/12/06 00:39:34;;;;;;;39.30;21.52;;;10.30;61.40;;;;;;4993137;23;20025;-85
2021/12/06 00:45:24;;;;;;;46.85;23.05;;;10.00;61.80;;;;;;4989690;23;20448;-86
2021/12/06 00:51:15;;;;;;;43.58;23.27;;;9.80;62.90;;;;;;4981523;23;20070;-87
2021/12/06 00:56:27;;;;;;;35.85;20.33;;;10.00;62.00;;;;;;5052979;23;20125;-87
2021/12/06 01:02:16;;;;;;;40.40;22.38;;;10.20;61.10;;;;;;5806922;23;20076;-87
2021/12/06 01:07:54;;;;;;;39.95;21.55;;;10.20;60.90;;;;;;4987283;28;20054;-87
2021/12/06 01:10:22;;;;;;;49.55;23.90;;;10.50;60.60;;;;;;4958509;28;20435;-84
2021/12/06 01:12:48;;;;;;;50.13;25.33;;;10.50;60.80;;;;;;4957211;28;20027;-87
2021/12/06 01:15:14;;;;;;;35.08;20.30;;;10.60;60.50;;;;;;4957441;28;20027;-87
2021/12/06 01:17:46;;;;;;;43.88;22.25;;;10.80;59.90;;;;;;4957825;28;20085;-88
2021/12/06 01:20:19;;;;;;;33.78;17.70;;;10.80;59.60;;;;;;4974668;28;20038;-87
2021/12/06 01:23:16;;;;;;;37.53;20.98;;;10.40;60.10;;;;;;4972574;28;20042;-87
2021/12/06 01:29:36;;;;;;;46.25;23.10;;;10.70;60.10;;;;;;4947818;29;20626;-87
2021/12/06 01:50:17;;;;;;;39.33;20.10;;;10.10;61.40;;;;;;5686443;23;20084;-88
2021/12/06 01:53:00;;;;;;;37.33;20.13;;;10.30;61.20;;;;;;4978107;28;20045;-88
2021/12/06 01:58:48;;;;;;;38.10;20.27;;;10.00;61.70;;;;;;5019007;23;20115;-88
2021/12/06 02:01:14;;;;;;;33.03;18.83;;;10.40;61.40;;;;;;4999188;28;20038;-88
2021/12/06 02:03:40;;;;;;;30.92;17.70;;;10.60;60.80;;;;;;5015644;28;20413;-89
2021/12/06 02:16:05;;;;;;;38.33;19.25;;;10.60;60.70;;;;;;5197575;23;20039;-88
2021/12/06 02:21:33;;;;;;;40.92;19.83;;;10.90;59.70;;;;;;5296047;23;20051;-87
2021/12/06 02:24:37;;;;;;;33.45;19.42;;;10.80;59.80;;;;;;4955122;29;20111;-88
2021/12/06 02:27:55;;;;;;;32.42;18.25;;;10.70;59.70;;;;;;4961056;28;20023;-88
2021/12/06 02:33:14;;;;;;;33.00;17.67;;;10.60;59.80;;;;;;5877004;23;20434;-88
2021/12/06 02:35:46;;;;;;;31.75;19.60;;;10.20;60.40;;;;;;4959831;28;20121;-88
2021/12/06 02:38:16;;;;;;;32.75;18.55;;;9.90;61.40;;;;;;4976487;28;20031;-88
2021/12/06 02:41:04;;;;;;;26.55;16.00;;;9.60;62.00;;;;;;4959987;28;20030;-87
2021/12/06 02:45:58;;;;;;;33.45;18.88;;;8.90;63.50;;;;;;4981149;23;20066;-88
2021/12/06 02:49:45;;;;;;;35.97;19.52;;;8.60;64.60;;;;;;4959450;28;20026;-87
2021/12/06 02:58:56;;;;;;;30.90;17.77;;;8.90;63.90;;;;;;4976544;28;20218;-88
2021/12/06 03:07:57;;;;;;;32.28;17.67;;;8.90;64.00;;;;;;4897488;29;20036;-88
2021/12/06 03:16:49;;;;;;;30.73;17.25;;;8.70;64.60;;;;;;4981322;23;20068;-87
2021/12/06 03:21:40;;;;;;;29.08;15.93;;;9.00;64.00;;;;;;5110693;23;20043;-89
2021/12/06 03:24:09;;;;;;;27.73;16.45;;;8.90;64.00;;;;;;4958927;28;20131;-88
2021/12/06 03:26:37;;;;;;;28.13;16.83;;;9.10;64.30;;;;;;4975191;28;20113;-88
2021/12/06 03:29:42;;;;;;;29.02;17.05;;;9.50;63.20;;;;;;4958433;28;20029;-88
2021/12/06 03:32:08;;;;;;;24.88;15.88;;;9.50;62.50;;;;;;4964677;23;20035;-89
2021/12/06 03:34:44;;;;;;;25.58;16.45;;;9.30;63.00;;;;;;5327506;23;20921;31
2021/12/06 03:39:58;;;;;;;25.15;15.15;;;9.00;63.70;;;;;;6020794;23;20023;-87
2021/12/06 03:42:39;;;;;;;26.10;15.70;;;9.30;63.80;;;;;;4955126;29;20051;-88
2021/12/06 03:51:36;;;;;;;30.73;17.58;;;9.00;64.10;;;;;;4963529;23;20110;-87
2021/12/06 03:59:53;;;;;;;24.85;15.02;;;9.20;63.10;;;;;;4961013;23;20058;-87
2021/12/06 04:02:22;;;;;;;22.30;13.95;;;9.00;63.80;;;;;;4955958;28;20173;-89
2021/12/06 04:04:47;;;;;;;20.58;13.32;;;9.30;63.40;;;;;;4954964;29;20039;-87
2021/12/06 04:11:03;;;;;;;22.35;14.27;;;9.80;62.10;;;;;;4915963;23;20070;-85
2021/12/06 04:16:51;;;;;;;23.38;14.35;;;10.00;61.60;;;;;;4962753;23;20062;-88
2021/12/06 04:19:17;;;;;;;23.70;14.93;;;9.90;61.40;;;;;;4928477;29;20035;-88
2021/12/06 04:21:44;;;;;;;27.35;16.73;;;9.70;61.80;;;;;;4940924;29;20131;-87
2021/12/06 04:24:35;;;;;;;25.70;15.30;;;9.70;61.70;;;;;;4954754;29;20390;-88
2021/12/06 04:27:12;;;;;;;56.42;31.00;;;10.10;61.30;;;;;;4914294;29;20048;-87
2021/12/06 04:29:38;;;;;;;37.55;22.38;;;10.20;61.00;;;;;;4935298;29;20042;-86
2021/12/06 04:33:00;;;;;;;33.92;19.33;;;10.20;60.70;;;;;;4919309;29;20035;-89
2021/12/06 04:38:54;;;;;;;27.30;16.30;;;9.30;62.80;;;;;;5614100;23;20055;-89
2021/12/06 04:41:20;;;;;;;29.00;17.50;;;8.70;64.40;;;;;;4963113;23;20027;-86
2021/12/06 04:46:47;;;;;;;30.05;17.60;;;8.00;67.20;;;;;;4954556;28;20039;-89
2021/12/06 04:52:40;;;;;;;27.35;16.77;;;8.20;65.90;;;;;;4963346;23;20070;-87
2021/12/06 04:55:27;;;;;;;27.48;16.50;;;8.20;66.50;;;;;;4975231;28;20559;-88
2021/12/06 05:00:53;;;;;;;27.80;16.73;;;9.10;63.40;;;;;;5193768;23;20070;-88
2021/12/06 05:03:19;;;;;;;27.00;15.90;;;9.20;63.40;;;;;;4974705;28;20031;-87
2021/12/06 05:05:55;;;;;;;23.52;14.63;;;8.80;63.80;;;;;;4974332;28;20035;-87
2021/12/06 05:09:15;;;;;;;29.73;17.27;;;8.90;64.30;;;;;;4957820;29;20015;-87
2021/12/06 05:17:32;;;;;;;23.70;15.13;;;8.60;64.40;;;;;;4974352;28;20482;-87
2021/12/06 05:23:22;;;;;;;22.27;13.98;;;8.60;65.20;;;;;;5412793;23;20107;-88
2021/12/06 05:31:43;;;;;;;26.13;16.30;;;9.40;63.00;;;;;;4922917;23;20056;-87
2021/12/06 05:34:15;;;;;;;20.38;12.95;;;9.80;61.60;;;;;;4973823;28;20043;-88
2021/12/06 05:36:53;;;;;;;23.50;15.38;;;9.40;62.40;;;;;;4957117;29;20033;-87
2021/12/06 05:39:19;;;;;;;35.97;21.00;;;9.30;62.60;;;;;;4960431;28;20031;-86
2021/12/06 05:45:16;;;;;;;25.40;15.27;;;9.50;62.20;;;;;;4997722;28;20497;-87
2021/12/06 05:47:41;;;;;;;;;;;9.30;62.60;;;;;;4963035;28;20038;-88
2021/12/06 05:50:25;;;;;;;20.30;12.70;;;9.40;62.80;;;;;;4959393;28;19906;-89
2021/12/06 05:53:14;;;;;;;22.25;14.57;;;9.40;62.90;;;;;;4959649;28;20031;-88
2021/12/06 05:58:34;;;;;;;22.17;13.70;;;9.40;62.60;;;;;;5043254;23;20054;-88
2021/12/06 06:01:00;;;;;;;27.13;16.15;;;9.40;62.80;;;;;;4993042;28;20043;-88
2021/12/06 06:03:29;;;;;;;21.58;14.00;;;9.50;62.40;;;;;;4981298;28;20086;-87
2021/12/06 06:06:45;;;;;;;36.70;20.13;;;9.50;62.40;;;;;;4956903;28;20035;-89
2021/12/06 06:09:11;;;;;;;27.10;16.13;;;9.50;62.30;;;;;;4942108;29;20035;-91
2021/12/06 06:11:37;;;;;;;23.35;14.18;;;9.20;63.20;;;;;;4944328;23;20391;-91
2021/12/06 06:14:06;;;;;;;30.58;17.35;;;9.20;62.80;;;;;;4959850;28;20029;-89
2021/12/06 06:16:46;;;;;;;31.80;19.40;;;9.10;63.50;;;;;;4957553;28;20026;-88
2021/12/06 06:25:25;;;;;;;35.45;20.27;;;9.50;62.30;;;;;;4974373;23;20062;-88
2021/12/06 06:27:51;;;;;;;34.05;20.50;;;9.60;62.10;;;;;;5060595;23;22145;-89
2021/12/06 06:30:17;;;;;;;31.33;19.77;;;9.50;62.40;;;;;;4959092;28;20041;-89
2021/12/06 06:32:44;;;;;;;35.92;21.27;;;9.80;62.40;;;;;;4947962;28;20015;-89
2021/12/06 06:35:13;;;;;;;35.65;20.77;;;9.70;62.00;;;;;;4940480;29;20031;-87
2021/12/06 06:37:39;;;;;;;33.75;20.30;;;9.60;62.40;;;;;;4940771;29;20445;-87
2021/12/06 06:40:40;;;;;;;30.52;19.20;;;9.70;62.20;;;;;;4969449;23;20051;-89
2021/12/06 06:52:31;;;;;;;33.10;19.98;;;8.90;64.50;;;;;;4984411;23;20054;-86
2021/12/06 08:48:08;;;;;;;43.83;22.95;;;9.20;65.10;;;;;;4173861;23;20405;-90
2021/12/06 09:17:09;;;;;;;43.35;24.77;;;9.10;66.00;;;;;;5023648;23;20050;-95
2021/12/06 09:23:00;;;;;;;38.15;22.55;;;9.60;65.20;;;;;;5665723;23;20058;-94
2021/12/06 09:25:33;;;;;;;43.13;23.90;;;9.60;64.60;;;;;;4980229;28;20114;-96
2021/12/06 09:31:05;;;;;;;38.67;23.08;;;9.50;65.00;;;;;;5541717;23;20490;-90
2021/12/06 09:52:21;;;;;;;;;;;;;;;;;;;;;
2021/12/06 10:02:51;;;;;;;47.97;36.47;;;10.10;64.30;;;;;;4973051;29;20043;-93
2021/12/06 10:14:15;;;;;;;89.00;72.25;;;8.80;66.70;;;;;;6030215;23;20020;-90
2021/12/06 11:24:51;;;;;;;30.92;19.85;;;10.60;64.00;;;;;;6087129;23;20033;31
2021/12/06 11:27:27;;;;;;;37.28;22.15;;;11.30;62.60;;;;;;4897407;29;20499;-91
2021/12/06 11:30:04;;;;;;;48.17;29.90;;;11.90;61.40;;;;;;4883056;29;20119;-91
2021/12/06 11:32:46;;;;;;;55.28;31.00;;;12.20;60.40;;;;;;4883540;29;20056;-92
2021/12/06 11:35:15;;;;;;;36.83;22.35;;;12.10;59.90;;;;;;4882843;29;20028;-88
2021/12/06 11:38:00;;;;;;;28.17;18.48;;;12.00;59.90;;;;;;4899452;29;20056;-90
2021/12/06 11:40:33;;;;;;;28.40;16.23;;;11.40;61.60;;;;;;4883254;29;20032;-90
2021/12/06 11:43:00;;;;;;;26.80;17.48;;;10.80;62.30;;;;;;4921884;23;20071;-95
2021/12/06 12:01:09;;;;;;;25.30;16.83;;;10.20;64.40;;;;;;4990652;23;20134;-83
2021/12/06 12:03:30;;;;;;;26.45;16.92;;;10.00;64.70;;;;;;4967043;28;20109;-82
2021/12/06 12:05:59;;;;;;;24.42;15.45;;;10.00;64.10;;;;;;4973502;28;20135;-83
2021/12/06 12:08:25;;;;;;;23.25;15.30;;;9.70;65.50;;;;;;4956758;28;20034;-82
2021/12/06 12:11:01;;;;;;;23.13;14.80;;;10.00;64.90;;;;;;4957854;28;20110;-83
2021/12/06 12:13:34;;;;;;;22.63;15.20;;;10.20;64.10;;;;;;4974609;28;20132;-83
2021/12/06 12:16:05;;;;;;;21.38;13.95;;;10.30;64.10;;;;;;4957892;28;20030;-82
2021/12/06 12:19:05;;;;;;;24.08;14.35;;;10.30;63.80;;;;;;4957516;28;20362;-84
2021/12/06 12:21:31;;;;;;;22.38;14.82;;;10.50;63.80;;;;;;4915248;29;20087;-82
2021/12/06 12:23:58;;;;;;;31.40;18.92;;;10.60;63.50;;;;;;4914956;29;20067;-83
2021/12/06 12:26:25;;;;;;;28.60;18.90;;;10.80;64.00;;;;;;4915257;29;20061;-82
2021/12/06 12:28:58;;;;;;;29.75;17.92;;;11.30;62.20;;;;;;4914805;29;20132;-83
2021/12/06 12:31:26;;;;;;;21.73;14.70;;;11.50;62.20;;;;;;4915134;29;20119;-82
2021/12/06 12:34:03;;;;;;;22.10;15.02;;;11.60;61.00;;;;;;4915269;29;20032;-83
2021/12/06 12:36:34;;;;;;;29.63;17.60;;;11.30;61.70;;;;;;4914800;29;20143;-83
2021/12/06 12:39:14;;;;;;;25.17;15.07;;;11.30;62.00;;;;;;4913775;29;20040;-83
2021/12/06 12:42:02;;;;;;;24.10;16.15;;;11.30;61.60;;;;;;4899111;29;20040;-82
2021/12/06 12:44:52;;;;;;;24.83;15.65;;;11.40;62.00;;;;;;4915008;29;20522;-83
2021/12/06 12:47:23;;;;;;;28.55;16.83;;;11.60;60.90;;;;;;4907903;29;20138;-83
2021/12/06 12:49:54;;;;;;;25.88;17.13;;;11.40;61.80;;;;;;4914969;29;20044;-82
2021/12/06 12:52:34;;;;;;;23.58;15.02;;;11.10;62.20;;;;;;4914656;29;20035;-82
2021/12/06 12:55:00;;;;;;;22.52;14.20;;;10.70;63.00;;;;;;4915102;29;20416;-83
2021/12/06 12:57:37;;;;;;;22.10;13.70;;;10.10;64.80;;;;;;4954031;28;20035;-82
2021/12/06 13:00:04;;;;;;;21.77;14.07;;;9.90;65.70;;;;;;4956939;28;20055;-82
2021/12/06 13:02:33;;;;;;;21.15;13.25;;;10.00;65.10;;;;;;4956818;28;20451;-81
2021/12/06 13:04:59;;;;;;;19.52;12.98;;;9.80;64.90;;;;;;4957401;28;20031;-82
2021/12/06 13:07:51;;;;;;;19.10;11.52;;;9.70;65.70;;;;;;4956838;28;20038;-83
2021/12/06 13:10:22;;;;;;;17.42;10.60;;;9.70;66.00;;;;;;4956893;28;20031;-82
2021/12/06 13:13:01;;;;;;;15.70;10.15;;;10.00;65.10;;;;;;4974032;28;20018;-82
2021/12/06 13:19:06;;;;;;;23.02;13.13;;;9.60;66.20;;;;;;4961383;28;20080;-82
2021/12/06 13:21:48;;;;;;;31.15;14.73;;;10.00;65.50;;;;;;4952989;28;20062;-84
2021/12/06 13:24:15;;;;;;;30.05;13.65;;;10.10;65.10;;;;;;4960522;28;20085;-81
2021/12/06 13:26:51;;;;;;;23.90;12.68;;;10.20;65.20;;;;;;4960289;28;20148;-83
2021/12/06 13:29:42;;;;;;;22.27;13.07;;;9.90;65.60;;;;;;4960171;28;20475;-82
2021/12/06 13:36:01;;;;;;;22.27;11.48;;;9.70;65.30;;;;;;4972466;28;20101;-81
2021/12/06 13:38:36;;;;;;;18.70;10.63;;;9.60;65.80;;;;;;4959997;28;20041;-82
2021/12/06 13:41:04;;;;;;;19.33;11.35;;;9.80;65.40;;;;;;4960374;28;20026;-82
2021/12/06 13:43:36;;;;;;;17.73;11.20;;;9.70;64.70;;;;;;4960163;28;20027;-83
2021/12/06 13:46:08;;;;;;;17.50;9.88;;;9.70;65.00;;;;;;4960081;28;20604;-85
2021/12/06 13:48:48;;;;;;;14.35;8.80;;;9.80;64.90;;;;;;4960428;28;20666;-81
2021/12/06 13:51:29;;;;;;;;;;;9.70;64.50;;;;;;4961058;28;20210;-82
2021/12/06 13:54:08;;;;;;;13.40;8.68;;;9.50;65.00;;;;;;4975988;28;19984;-81
2021/12/06 13:56:43;;;;;;;12.57;7.70;;;9.30;65.50;;;;;;4959964;28;20080;-82
2021/12/06 13:59:09;;;;;;;14.82;8.90;;;9.10;66.30;;;;;;4959305;28;20379;-81
2021/12/06 14:01:46;;;;;;;16.83;9.60;;;8.90;66.50;;;;;;4959316;28;20039;-83
2021/12/06 14:04:19;;;;;;;16.88;10.15;;;8.90;66.70;;;;;;4960091;28;20023;-83
2021/12/06 14:06:47;;;;;;;15.43;9.77;;;8.90;66.80;;;;;;4959534;28;20085;-82
2021/12/06 14:09:17;;;;;;;18.42;9.52;;;9.10;66.30;;;;;;4977055;28;20481;-86
2021/12/06 14:11:50;;;;;;;16.95;10.68;;;8.70;66.50;;;;;;4951872;28;20033;-82
2021/12/06 14:14:21;;;;;;;98.40;66.63;;;8.50;67.40;;;;;;4976564;28;20387;-81
2021/12/06 14:17:17;;;;;;;59.95;35.75;;;8.60;67.60;;;;;;4958840;28;20122;-86
2021/12/06 14:19:44;;;;;;;51.63;26.08;;;8.60;67.40;;;;;;4956363;29;20028;-83
2021/12/06 14:22:11;;;;;;;28.05;15.00;;;8.60;67.30;;;;;;4963953;28;20037;-81
2021/12/06 14:24:39;;;;;;;17.50;9.90;;;8.70;67.60;;;;;;4977479;28;20023;-81
2021/12/06 14:27:07;;;;;;;18.20;11.00;;;9.30;65.70;;;;;;4958877;28;20035;-80
2021/12/06 14:29:33;;;;;;;25.73;12.57;;;9.00;66.30;;;;;;4958434;28;20031;-81
2021/12/06 14:32:03;;;;;;;24.83;14.13;;;9.20;65.80;;;;;;4958670;28;20023;-80
2021/12/06 14:34:33;;;;;;;19.48;11.18;;;9.70;64.70;;;;;;4975988;28;20109;-84
2021/12/06 14:37:02;;;;;;;22.77;14.32;;;9.80;64.10;;;;;;4958845;28;20468;-83
2021/12/06 14:40:03;;;;;;;22.83;14.73;;;10.10;63.20;;;;;;4954903;28;20169;-83
2021/12/06 14:42:29;;;;;;;;;;;10.40;62.00;;;;;;4914780;29;20119;-84
2021/12/06 14:45:06;;;;;;;23.50;15.52;;;10.20;62.10;;;;;;4901026;29;19911;-87
2021/12/06 14:47:48;;;;;;;31.55;24.05;;;10.00;62.90;;;;;;4901255;29;20020;-82
2021/12/06 14:50:32;;;;;;;24.85;17.77;;;9.90;63.90;;;;;;4901036;29;20079;-84
2021/12/06 14:52:59;;;;;;;22.75;13.63;;;9.90;63.40;;;;;;4901497;29;20391;-85
2021/12/06 14:57:55;;;;;;;19.52;12.10;;;10.10;62.30;;;;;;4935922;29;20487;-80
2021/12/06 15:00:53;;;;;;;22.00;12.18;;;9.80;62.90;;;;;;4915166;29;20048;-82
2021/12/06 15:03:20;;;;;;;87.32;57.67;;;9.90;63.20;;;;;;4914928;29;20060;-81
2021/12/06 15:08:56;;;;;;;40.72;35.50;;;9.90;62.40;;;;;;4922294;29;20114;-81
2021/12/06 15:12:01;;;;;;;;;;;;;;;;;;;;;
2021/12/06 15:14:42;;;;;;;24.13;14.45;;;9.00;64.20;;;;;;4956215;29;20030;-81
2021/12/06 15:17:08;;;;;;;25.00;14.98;;;9.50;63.90;;;;;;4949973;28;20026;-82
2021/12/06 15:19:40;;;;;;;24.50;16.00;;;9.30;63.80;;;;;;4955299;29;20109;-81
2021/12/06 15:22:06;;;;;;;20.42;14.00;;;9.70;62.70;;;;;;4956399;29;20076;-82
2021/12/06 15:24:33;;;;;;;30.10;13.15;;;9.30;62.80;;;;;;4946147;28;20030;-82
2021/12/06 15:27:01;;;;;;;22.02;12.32;;;9.40;63.20;;;;;;4958061;28;20394;-87
2021/12/06 15:29:34;;;;;;;25.52;12.23;;;9.50;63.10;;;;;;4958143;28;20019;-80
2021/12/06 15:32:06;;;;;;;24.17;14.52;;;9.40;62.70;;;;;;4975320;28;20027;-82
2021/12/06 15:34:37;;;;;;;31.58;23.40;;;8.90;63.50;;;;;;4939875;29;20386;-80
2021/12/06 15:37:04;;;;;;;23.48;14.88;;;8.70;64.90;;;;;;4952567;28;20041;-85
2021/12/06 15:39:52;;;;;;;21.02;12.63;;;8.60;64.40;;;;;;4960764;28;20026;-81
2021/12/06 15:42:20;;;;;;;26.05;15.65;;;8.60;64.80;;;;;;4956994;28;20042;-86
2021/12/06 15:44:50;;;;;;;27.15;15.30;;;8.60;65.00;;;;;;4958005;28;20027;-84
2021/12/06 15:47:56;;;;;;;23.15;13.82;;;8.90;63.70;;;;;;4944656;28;20027;-82
2021/12/06 15:50:25;;;;;;;102.65;51.80;;;8.90;63.70;;;;;;4946985;28;20035;-82
2021/12/06 15:52:54;;;;;;;38.90;25.00;;;9.20;63.30;;;;;;4959663;28;20482;-82
2021/12/06 15:55:27;;;;;;;30.30;15.82;;;8.80;63.70;;;;;;4956381;28;20038;-83
2021/12/06 15:58:00;;;;;;;28.65;17.05;;;8.50;64.40;;;;;;4957236;28;20034;-82
2021/12/06 16:00:40;;;;;;;25.00;14.27;;;8.40;64.90;;;;;;4957005;28;20394;-84
2021/12/06 16:03:36;;;;;;;40.35;25.58;;;8.20;64.80;;;;;;4957036;28;20035;-82
2021/12/06 16:06:07;;;;;;;27.67;17.67;;;8.50;65.00;;;;;;4634676;23;10001925;-80
2021/12/06 16:08:36;;;;;;;29.58;19.83;;;8.40;64.90;;;;;;4973434;28;20553;-81
2021/12/06 16:11:04;;;;;;;28.30;18.23;;;8.80;64.80;;;;;;4985859;28;20026;-82
2021/12/06 16:13:36;;;;;;;27.95;17.55;;;8.90;64.00;;;;;;4976208;28;20022;-81
2021/12/06 16:16:05;;;;;;;41.88;25.92;;;8.90;63.40;;;;;;4994530;28;20022;-83
2021/12/06 16:18:41;;;;;;;29.45;17.58;;;8.90;63.20;;;;;;4972702;28;20121;-80
2021/12/06 16:21:46;;;;;;;26.13;15.50;;;9.10;62.30;;;;;;4957789;28;20030;-82
2021/12/06 16:24:14;;;;;;;49.85;33.63;;;9.30;62.20;;;;;;4924995;29;20046;-82
2021/12/06 16:26:43;;;;;;;35.10;22.10;;;9.20;62.30;;;;;;4925052;29;20449;-84
2021/12/06 16:29:44;;;;;;;22.75;14.15;;;9.60;61.30;;;;;;4929022;29;20627;-82
2021/12/06 16:32:11;;;;;;;31.52;20.67;;;9.60;60.50;;;;;;4946605;29;20121;-82
2021/12/06 16:34:40;;;;;;;50.88;30.65;;;9.60;61.40;;;;;;4939457;29;20308;-82
2021/12/06 16:37:16;;;;;;;49.80;31.38;;;9.60;61.40;;;;;;4927395;29;20531;-82
2021/12/06 16:39:57;;;;;;;63.08;39.50;;;10.00;60.80;;;;;;4938429;29;20043;-80
2021/12/06 16:42:27;;;;;;;74.85;50.90;;;9.80;60.30;;;;;;4577006;29;10000727;-81
2021/12/06 16:45:05;;;;;;;25.17;14.73;;;9.50;61.30;;;;;;4926626;29;20387;-83
2021/12/06 16:47:34;;;;;;;25.58;15.85;;;9.10;60.70;;;;;;4933279;29;20028;-85
2021/12/06 16:50:13;;;;;;;40.85;26.10;;;8.70;62.70;;;;;;4932386;29;20040;-83
2021/12/06 16:52:55;;;;;;;42.72;26.08;;;8.80;62.80;;;;;;4930380;29;20039;-85
2021/12/06 16:55:32;;;;;;;44.70;29.23;;;8.80;62.80;;;;;;4930073;29;20147;-80
2021/12/06 16:58:04;;;;;;;48.88;29.10;;;9.40;61.20;;;;;;4943554;29;20020;-83
2021/12/06 17:00:33;;;;;;;28.27;17.45;;;9.10;61.10;;;;;;4956288;28;20041;-85
2021/12/06 17:03:13;;;;;;;26.90;16.67;;;8.70;61.60;;;;;;4958917;28;20030;-83
2021/12/06 17:05:44;;;;;;;27.58;15.57;;;8.60;62.40;;;;;;4946216;29;20773;-84
2021/12/06 17:08:12;;;;;;;64.95;50.10;;;8.50;62.40;;;;;;4956124;29;20027;-81
2021/12/06 17:10:44;;;;;;;31.48;20.67;;;7.90;63.70;;;;;;4956267;29;20039;-82
2021/12/06 17:13:32;;;;;;;25.55;14.93;;;8.10;63.70;;;;;;4956912;29;20031;-83
2021/12/06 17:16:07;;;;;;;27.48;15.30;;;8.10;63.00;;;;;;4966462;28;20081;-84
2021/12/06 17:18:37;;;;;;;27.15;16.10;;;7.50;64.20;;;;;;4976071;28;20109;-82
2021/12/06 17:21:07;;;;;;;45.95;33.05;;;7.40;65.00;;;;;;4975975;28;20026;-82
2021/12/06 17:23:35;;;;;;;41.72;29.05;;;7.20;66.10;;;;;;4967144;28;20035;-81
2021/12/06 17:26:09;;;;;;;101.38;86.22;;;7.60;64.60;;;;;;4943344;29;20032;-83
2021/12/06 17:28:56;;;;;;;43.33;31.10;;;7.80;64.30;;;;;;4937024;29;20036;-86
2021/12/06 17:31:36;;;;;;;30.08;18.33;;;8.00;63.30;;;;;;4952778;29;20475;-82
2021/12/06 17:34:08;;;;;;;26.85;16.48;;;8.10;62.70;;;;;;4955177;29;20027;-85
2021/12/06 17:36:37;;;;;;;67.97;55.72;;;7.90;62.30;;;;;;4955085;29;20031;-80
2021/12/06 17:39:07;;;;;;;51.75;33.40;;;7.70;64.10;;;;;;4956057;29;20031;-84
2021/12/06 17:41:34;;;;;;;44.78;32.67;;;7.60;64.10;;;;;;4955692;29;20039;-81
2021/12/06 17:44:02;;;;;;;40.40;24.85;;;7.60;64.50;;;;;;4950434;29;20038;-80
2021/12/06 17:46:53;;;;;;;42.53;26.75;;;7.70;63.40;;;;;;4941962;29;20522;-81
2021/12/06 17:49:20;;;;;;;31.35;18.23;;;7.90;62.50;;;;;;4954902;29;20031;-81
2021/12/06 17:51:49;;;;;;;31.48;19.02;;;7.70;63.50;;;;;;4956303;29;20058;-82
2021/12/06 17:54:25;;;;;;;36.88;23.52;;;7.90;63.40;;;;;;4954253;29;20035;-80
2021/12/06 17:56:52;;;;;;;31.75;18.00;;;8.30;62.40;;;;;;4956029;29;20431;-84
2021/12/06 17:59:20;;;;;;;40.65;30.02;;;8.50;61.40;;;;;;4954513;29;20101;-82
2021/12/06 18:01:50;;;;;;;35.00;20.63;;;8.60;61.30;;;;;;4954411;29;20123;-86
2021/12/06 18:04:18;;;;;;;40.20;21.77;;;8.30;61.60;;;;;;4956605;29;20028;-80
2021/12/06 18:06:45;;;;;;;44.65;27.95;;;8.10;62.60;;;;;;4953625;28;20704;-83
2021/12/06 18:09:12;;;;;;;56.50;30.90;;;7.70;62.60;;;;;;4947598;28;20058;-84
2021/12/06 18:11:39;;;;;;;59.83;32.28;;;7.50;63.30;;;;;;4939263;29;20506;-83
2021/12/06 18:14:07;;;;;;;50.25;30.70;;;7.60;63.20;;;;;;4954981;29;20038;-81
2021/12/06 18:16:33;;;;;;;34.70;19.70;;;7.50;63.90;;;;;;4954681;29;20619;-82
2021/12/06 18:18:58;;;;;;;43.55;24.35;;;7.40;63.70;;;;;;4937717;29;20030;-82
2021/12/06 18:21:24;;;;;;;59.60;28.63;;;7.50;64.00;;;;;;4929729;29;20047;-84
2021/12/06 18:23:50;;;;;;;29.63;15.90;;;7.70;63.40;;;;;;4940934;29;20023;-86
2021/12/06 18:26:16;;;;;;;30.00;17.30;;;7.70;62.70;;;;;;4966676;28;20035;-81
2021/12/06 18:28:42;;;;;;;34.15;17.90;;;7.20;64.30;;;;;;4969128;28;20097;-83
2021/12/06 18:31:10;;;;;;;31.98;18.65;;;7.20;64.10;;;;;;4954841;29;20471;-83
2021/12/06 18:33:42;;;;;;;31.52;17.77;;;7.60;64.00;;;;;;4938378;29;20090;-83
2021/12/06 18:36:10;;;;;;;36.70;22.70;;;7.50;63.70;;;;;;4938892;29;20089;-86
2021/12/06 18:38:40;;;;;;;35.00;20.27;;;7.50;63.80;;;;;;4946189;29;20161;-84
2021/12/06 18:41:09;;;;;;;31.85;16.98;;;7.10;64.50;;;;;;4938389;29;20101;-84
2021/12/06 18:46:18;;;;;;;31.08;18.25;;;7.10;64.50;;;;;;4955109;28;20027;-81
2021/12/06 18:48:47;;;;;;;30.70;17.85;;;7.40;64.20;;;;;;4954553;29;20043;-83
2021/12/06 18:51:14;;;;;;;29.33;16.80;;;7.40;63.40;;;;;;4953957;29;20086;-82
2021/12/06 18:53:43;;;;;;;30.65;17.27;;;7.40;63.40;;;;;;4954408;29;20031;-84
2021/12/06 18:56:09;;;;;;;30.45;16.50;;;7.00;64.40;;;;;;4953497;29;20122;-82
2021/12/06 18:58:36;;;;;;;30.95;17.67;;;6.90;64.60;;;;;;4961082;28;20114;-84
2021/12/06 19:01:03;;;;;;;34.50;16.23;;;6.70;65.10;;;;;;4973875;28;20359;-86
2021/12/06 19:03:29;;;;;;;29.73;16.20;;;6.30;65.60;;;;;;4957198;28;20626;-83
2021/12/06 19:05:55;;;;;;;32.67;18.15;;;6.60;66.50;;;;;;4953851;29;20503;-85
2021/12/06 19:08:20;;;;;;;30.10;18.98;;;6.80;64.50;;;;;;4954856;29;20031;-85
2021/12/06 19:10:47;;;;;;;32.78;17.58;;;6.70;64.80;;;;;;4954705;29;20038;-85
2021/12/06 19:13:13;;;;;;;31.27;17.55;;;6.90;64.40;;;;;;4954318;29;20027;-85
2021/12/06 19:15:45;;;;;;;31.27;17.35;;;6.70;65.30;;;;;;4953756;29;20532;-82
2021/12/06 19:18:11;;;;;;;31.52;17.48;;;6.70;65.20;;;;;;4952805;28;20041;-85
2021/12/06 19:20:41;;;;;;;31.52;17.90;;;6.70;65.30;;;;;;4955932;28;20371;-88
2021/12/06 19:23:17;;;;;;;32.92;18.02;;;6.70;65.60;;;;;;4964471;28;20394;-87
2021/12/06 19:25:44;;;;;;;31.02;17.77;;;6.80;65.10;;;;;;4973454;28;20034;-82
2021/12/06 19:28:14;;;;;;;33.88;19.20;;;6.80;64.30;;;;;;4969905;28;20087;-84
2021/12/06 19:30:42;;;;;;;32.03;17.05;;;6.60;65.60;;;;;;4953944;29;20051;-90
2021/12/06 19:33:17;;;;;;;33.08;17.13;;;7.00;64.80;;;;;;4953085;28;20573;-84
2021/12/06 19:35:59;;;;;;;30.48;16.77;;;7.00;63.90;;;;;;4953928;29;20129;-84
2021/12/06 19:38:26;;;;;;;32.10;16.55;;;6.70;64.80;;;;;;4959093;28;20394;-81
2021/12/06 19:40:53;;;;;;;31.85;16.98;;;6.80;64.40;;;;;;4956176;28;20467;-83
2021/12/06 19:43:19;;;;;;;30.10;17.30;;;6.70;64.60;;;;;;4932212;29;20023;-85
2021/12/06 19:45:46;;;;;;;28.90;16.63;;;6.50;65.60;;;;;;4948624;29;20031;-82
2021/12/06 19:48:13;;;;;;;29.33;16.20;;;6.80;64.90;;;;;;4953810;29;20019;-83
2021/12/06 19:50:43;;;;;;;59.08;23.20;;;6.60;64.40;;;;;;4954468;29;20055;-84
2021/12/06 19:53:09;;;;;;;;;;;6.80;65.40;;;;;;4954070;29;20026;-85
2021/12/06 19:55:39;;;;;;;34.65;17.40;;;6.60;64.50;;;;;;4954923;28;19906;-84
2021/12/06 19:58:08;;;;;;;41.27;21.30;;;6.70;64.50;;;;;;4960541;28;20434;-86
2021/12/06 20:00:38;;;;;;;33.83;17.85;;;6.50;64.90;;;;;;4968267;28;20118;-87
2021/12/06 20:03:04;;;;;;;;;;;6.60;64.80;;;;;;4939898;28;21707;-84
2021/12/06 20:05:30;;;;;;;37.03;20.42;;;6.60;64.90;;;;;;4953411;28;19925;-82
2021/12/06 20:07:56;;;;;;;35.78;18.23;;;6.50;65.20;;;;;;4937379;29;20015;-89
2021/12/06 20:10:23;;;;;;;33.17;16.67;;;6.50;64.80;;;;;;4937788;29;20451;-83
2021/12/06 20:12:58;;;;;;;42.20;19.48;;;6.60;64.60;;;;;;4949791;29;20128;-88
2021/12/06 20:15:23;;;;;;;52.53;23.92;;;6.70;64.90;;;;;;4932255;29;20091;-82
2021/12/06 20:17:49;;;;;;;39.72;19.33;;;6.50;64.60;;;;;;4936783;29;20031;-84
2021/12/06 20:22:44;;;;;;;86.15;32.30;;;6.40;65.20;;;;;;5109286;23;20145;-83
2021/12/06 20:25:20;;;;;;;49.60;22.30;;;6.50;64.20;;;;;;4973743;28;20021;-83
2021/12/06 20:27:47;;;;;;;76.78;30.27;;;6.30;65.50;;;;;;4963810;23;20027;-86
2021/12/06 20:30:14;;;;;;;32.83;18.02;;;6.50;64.80;;;;;;4955934;28;20040;-85
2021/12/06 20:32:40;;;;;;;31.55;16.92;;;6.40;65.40;;;;;;4955835;28;20027;-84
2021/12/06 20:35:25;;;;;;;32.67;17.60;;;6.30;64.80;;;;;;4956999;28;20027;-87
2021/12/06 20:40:33;;;;;;;29.55;16.55;;;6.10;66.00;;;;;;5707336;23;20113;-85
2021/12/06 20:46:14;;;;;;;31.60;16.50;;;6.90;63.80;;;;;;4934288;29;20099;-85
2021/12/06 20:48:43;;;;;;;29.70;17.13;;;6.90;63.20;;;;;;4918117;29;20122;-83
2021/12/06 21:00:29;;;;;;;31.02;16.77;;;6.70;64.30;;;;;;4932609;23;20379;-87